createdAt,value
2023-02-11T00:13:06.025Z,2.5
2023-02-11T00:28:11.054Z,2.56
2023-02-11T00:43:16.003Z,2.56
2023-02-11T00:58:21.022Z,2.5
2023-02-11T01:13:26.046Z,2.56
2023-02-11T01:28:31.222Z,2.56
2023-02-11T01:43:36.056Z,2.56
2023-02-11T01:58:41.050Z,2.56
2023-02-11T02:13:46.053Z,2.56
2023-02-11T02:28:51.028Z,2.56
2023-02-11T02:43:56.058Z,2.56
2023-02-11T02:59:01.033Z,2.62
2023-02-11T03:14:06.082Z,2.62
2023-02-11T03:29:11.070Z,2.62
2023-02-11T03:44:16.059Z,2.62
2023-02-11T03:59:21.057Z,2.62
2023-02-11T04:14:26.051Z,2.62
2023-02-11T04:29:31.084Z,2.68
2023-02-11T04:44:38.095Z,2.68
2023-02-11T04:59:43.073Z,2.68
2023-02-11T05:14:46.162Z,2.68
2023-02-11T05:29:49.117Z,2.68
2023-02-11T05:44:54.101Z,2.68
2023-02-11T05:59:59.144Z,2.75
2023-02-11T06:15:04.129Z,2.75
2023-02-11T06:30:09.103Z,2.75
2023-02-11T06:45:14.141Z,2.75
2023-02-11T07:00:19.160Z,2.75
2023-02-11T07:15:24.130Z,2.75
2023-02-11T07:30:29.184Z,2.81
2023-02-11T07:45:34.132Z,2.81
2023-02-11T08:00:39.210Z,2.81
2023-02-11T08:15:44.152Z,2.81
2023-02-11T08:30:49.599Z,2.81
2023-02-11T08:45:54.349Z,2.81
2023-02-11T09:00:59.194Z,2.81
2023-02-11T09:16:04.167Z,2.87
2023-02-11T09:31:09.362Z,2.87
2023-02-11T09:46:14.284Z,2.87
2023-02-11T10:01:21.005Z,2.87
2023-02-11T10:16:24.242Z,2.87
2023-02-11T10:31:29.336Z,2.87
2023-02-11T10:46:34.352Z,2.87
2023-02-11T11:01:39.214Z,2.93
2023-02-11T11:16:44.192Z,2.93
2023-02-11T11:31:49.391Z,2.93
2023-02-11T11:46:54.253Z,2.93
2023-02-11T12:01:59.255Z,3
2023-02-11T12:17:04.256Z,3
2023-02-11T12:32:09.331Z,3
2023-02-11T12:47:14.241Z,3
2023-02-11T13:02:19.296Z,3.06
2023-02-11T13:17:24.252Z,3.06
2023-02-11T13:32:29.232Z,3.06
2023-02-11T13:47:34.472Z,3.06
2023-02-11T14:02:39.362Z,3.06
2023-02-11T14:17:44.250Z,3.12
2023-02-11T14:32:49.255Z,3.12
2023-02-11T14:47:54.287Z,3.12
2023-02-11T15:02:59.314Z,3.12
2023-02-11T15:18:04.230Z,3.18
2023-02-11T15:33:09.287Z,3.18
2023-02-11T15:48:14.264Z,3.18
2023-02-11T16:03:19.252Z,3.25
2023-02-11T16:18:28.519Z,3.25
2023-02-11T16:33:29.235Z,3.25
2023-02-11T16:48:34.252Z,3.25
2023-02-11T17:03:39.276Z,3.31
2023-02-11T17:18:44.256Z,3.31
2023-02-11T17:33:49.261Z,3.31
2023-02-11T17:48:54.282Z,3.31
2023-02-11T18:03:57.290Z,3.31
2023-02-11T18:34:07.307Z,3.37
2023-02-11T18:49:12.306Z,3.37
2023-02-11T19:04:17.338Z,3.37
2023-02-11T19:19:22.346Z,3.37
2023-02-11T19:34:27.284Z,3.43
2023-02-11T19:49:32.280Z,3.43
2023-02-11T20:04:37.314Z,3.43
2023-02-11T20:19:42.329Z,3.43
2023-02-11T20:34:47.314Z,3.5
2023-02-11T20:49:52.324Z,3.5
2023-02-11T21:04:57.303Z,3.5
2023-02-11T21:20:02.343Z,3.5
2023-02-11T21:35:07.336Z,3.5
2023-02-11T21:50:12.316Z,3.56
2023-02-11T22:05:17.338Z,3.5
2023-02-11T22:20:22.345Z,3.56
2023-02-11T22:35:27.314Z,3.56
2023-02-11T22:50:32.333Z,3.56
2023-02-11T23:05:37.330Z,3.56
2023-02-11T23:20:42.366Z,3.56
2023-02-11T23:35:45.364Z,3.62
2023-02-11T23:50:50.371Z,3.62
